createdAt,value
2023-02-25T00:01:10.870Z,98988.44
2023-02-25T00:03:38.112Z,98999.63
2023-02-25T00:06:07.657Z,98990.50
2023-02-25T00:08:34.814Z,99003.81
2023-02-25T00:11:04.680Z,98999.81
2023-02-25T00:13:31.914Z,98985.47
2023-02-25T00:15:58.370Z,98996.66
2023-02-25T00:18:26.338Z,98999.53
2023-02-25T00:20:52.964Z,98994.56
2023-02-25T00:23:19.590Z,98993.06
2023-02-25T00:25:46.313Z,98998.91
2023-02-25T00:28:13.533Z,99012.34
2023-02-25T00:30:41.086Z,98997.25
2023-02-25T00:33:07.671Z,99002.19
2023-02-25T00:35:34.579Z,99001.66
2023-02-25T00:38:15.006Z,99001.91
2023-02-25T00:40:42.340Z,99006.94
2023-02-25T00:43:08.796Z,99008.25
2023-02-25T00:45:35.559Z,99017.56
2023-02-25T00:48:01.987Z,99013.28
2023-02-25T00:50:28.390Z,99014.56
2023-02-25T00:52:54.874Z,99018.44
2023-02-25T00:55:21.368Z,99011.69
2023-02-25T00:57:47.776Z,99016.72
2023-02-25T01:00:17.317Z,99018.88
2023-02-25T01:02:47.702Z,99015.34
2023-02-25T01:05:15.434Z,99022.69
2023-02-25T01:07:42.366Z,99024.25
2023-02-25T01:10:10.666Z,99018.41
2023-02-25T01:12:37.774Z,99027.13
2023-02-25T01:15:05.081Z,99030.06
2023-02-25T01:17:31.550Z,99029.44
2023-02-25T01:19:58.007Z,99016.22
2023-02-25T01:22:25.318Z,99021.25
2023-02-25T01:24:55.858Z,99028.38
2023-02-25T01:27:22.276Z,99036.19
2023-02-25T01:29:48.738Z,99035.13
2023-02-25T01:32:15.880Z,99036.72
2023-02-25T01:34:42.607Z,99040.56
2023-02-25T01:37:10.099Z,99045.69
2023-02-25T01:39:36.541Z,99031.66
2023-02-25T01:42:12.785Z,99043.03
2023-02-25T01:45:28.202Z,99047.47
2023-02-25T01:48:06.889Z,99054.50
2023-02-25T01:50:42.055Z,99058.22
2023-02-25T01:53:09.740Z,99059.53
2023-02-25T01:55:38.790Z,99067.84
2023-02-25T01:58:05.234Z,99084.34
2023-02-25T02:00:33.123Z,99066.31
2023-02-25T02:03:00.944Z,99077.16
2023-02-25T02:05:40.924Z,99096.59
2023-02-25T02:08:08.827Z,99084.56
2023-02-25T02:10:35.270Z,99089.31
2023-02-25T02:13:02.015Z,99091.31
2023-02-25T02:15:32.260Z,99096.75
2023-02-25T02:18:01.426Z,99094.44
2023-02-25T02:20:40.716Z,99089.78
2023-02-25T02:23:45.092Z,99099.09
2023-02-25T02:26:33.305Z,99110.59
2023-02-25T02:29:17.840Z,99097.44
2023-02-25T02:31:53.555Z,99107.22
2023-02-25T02:34:34.020Z,99102.19
2023-02-25T02:37:18.794Z,99107.97
2023-02-25T02:39:49.743Z,99106.78
2023-02-25T02:42:34.813Z,99110.31
2023-02-25T02:45:04.175Z,99112.16
2023-02-25T02:47:42.033Z,99112.03
2023-02-25T02:50:34.478Z,99118.94
2023-02-25T02:53:09.860Z,99115.81
2023-02-25T02:55:41.201Z,99114.34
2023-02-25T02:58:16.338Z,99113.34
2023-02-25T03:00:47.673Z,99122.31
2023-02-25T03:03:22.053Z,99129.91
2023-02-25T03:05:51.931Z,99132.97
2023-02-25T03:08:31.058Z,99131.56
2023-02-25T03:10:57.514Z,99142.34
2023-02-25T03:13:23.957Z,99137.78
2023-02-25T03:15:52.642Z,99142.75
2023-02-25T03:18:55.019Z,99140.84
2023-02-25T03:21:26.814Z,99145.91
2023-02-25T03:23:53.838Z,99150.69
2023-02-25T03:26:26.637Z,99147.25
2023-02-25T03:28:53.426Z,99157.41
2023-02-25T03:31:37.319Z,99152.50
2023-02-25T03:34:08.180Z,99165.66
2023-02-25T03:36:41.239Z,99162.00
2023-02-25T03:39:19.582Z,99167.25
2023-02-25T03:41:52.398Z,99167.72
2023-02-25T03:44:26.038Z,99171.00
2023-02-25T03:46:53.782Z,99173.03
2023-02-25T03:49:27.129Z,99177.59
2023-02-25T03:51:56.645Z,99197.53
2023-02-25T03:54:23.170Z,99191.16
2023-02-25T03:56:51.509Z,99192.75
2023-02-25T03:59:19.214Z,99197.78
2023-02-25T04:01:49.021Z,99211.63
2023-02-25T04:04:15.568Z,99207.28
2023-02-25T04:06:42.351Z,99208.56
2023-02-25T04:09:08.750Z,99215.22
2023-02-25T04:11:35.338Z,99219.19
2023-02-25T04:14:01.817Z,99230.06
2023-02-25T04:16:28.264Z,99219.03
2023-02-25T04:18:54.727Z,99232.28
2023-02-25T04:21:37.920Z,99228.03
2023-02-25T04:24:06.749Z,99229.44
2023-02-25T04:26:34.853Z,99226.72
2023-02-25T04:29:01.541Z,99231.03
2023-02-25T04:31:28.172Z,99235.59
2023-02-25T04:33:57.166Z,99237.16
2023-02-25T04:36:32.227Z,99237.53
2023-02-25T04:39:01.640Z,99230.72
2023-02-25T04:41:30.841Z,99240.84
2023-02-25T04:43:58.037Z,99243.31
2023-02-25T04:46:25.124Z,99241.22
2023-02-25T04:48:51.851Z,99248.19
2023-02-25T04:51:18.460Z,99237.09
2023-02-25T04:53:46.660Z,99246.22
2023-02-25T04:56:13.092Z,99250.75
2023-02-25T04:58:39.897Z,99252.22
2023-02-25T05:01:08.894Z,99251.53
2023-02-25T05:03:36.402Z,99254.88
2023-02-25T05:06:04.083Z,99259.03
2023-02-25T05:08:30.621Z,99275.84
2023-02-25T05:10:57.031Z,99273.03
2023-02-25T05:13:23.610Z,99264.00
2023-02-25T05:15:53.520Z,99265.38
2023-02-25T05:18:49.352Z,99272.63
2023-02-25T05:21:21.207Z,99264.53
2023-02-25T05:23:49.559Z,99280.66
2023-02-25T05:26:21.536Z,99275.41
2023-02-25T05:28:58.075Z,99278.31
2023-02-25T05:31:26.010Z,99268.69
2023-02-25T05:33:53.282Z,99277.69
2023-02-25T05:36:20.110Z,99266.34
2023-02-25T05:39:06.187Z,99277.81
2023-02-25T05:41:44.537Z,99282.44
2023-02-25T05:44:11.677Z,99280.44
2023-02-25T05:46:38.376Z,99284.72
2023-02-25T05:49:04.826Z,99289.56
2023-02-25T05:51:31.290Z,99289.25
2023-02-25T05:53:57.685Z,99287.50
2023-02-25T05:56:25.717Z,99298.16
2023-02-25T05:58:52.808Z,99306.97
2023-02-25T06:01:23.471Z,99305.78
2023-02-25T06:03:51.694Z,99303.94
2023-02-25T06:06:23.315Z,99313.13
2023-02-25T06:08:50.662Z,99310.44
2023-02-25T06:11:43.434Z,99322.97
2023-02-25T06:14:09.880Z,99329.91
2023-02-25T06:16:57.889Z,99332.59
2023-02-25T06:19:26.334Z,99335.38
2023-02-25T06:21:54.758Z,99334.97
2023-02-25T06:24:22.505Z,99345.31
2023-02-25T06:26:49.011Z,99353.28
2023-02-25T06:29:15.435Z,99350.41
2023-02-25T06:31:42.056Z,99359.25
2023-02-25T06:34:08.706Z,99368.00
2023-02-25T06:36:35.126Z,99367.03
2023-02-25T06:39:01.668Z,99373.72
2023-02-25T06:41:28.188Z,99382.47
2023-02-25T06:43:54.968Z,99383.31
2023-02-25T06:46:24.215Z,99382.56
2023-02-25T06:48:51.290Z,99390.19
2023-02-25T06:51:17.875Z,99393.06
2023-02-25T06:53:45.231Z,99404.34
2023-02-25T06:56:14.149Z,99404.91
2023-02-25T06:58:40.935Z,99414.13
2023-02-25T07:01:09.192Z,99429.69
2023-02-25T07:03:36.337Z,99423.59
2023-02-25T07:06:03.455Z,99428.53
2023-02-25T07:08:30.966Z,99433.25
2023-02-25T07:11:10.168Z,99439.44
2023-02-25T07:13:36.883Z,99442.78
2023-02-25T07:16:03.418Z,99437.69
2023-02-25T07:18:29.848Z,99445.41
2023-02-25T07:20:58.282Z,99453.28
2023-02-25T07:23:24.789Z,99452.91
2023-02-25T07:25:51.199Z,99456.16
2023-02-25T07:28:17.597Z,99461.84
2023-02-25T07:30:44.069Z,99459.38
2023-02-25T07:33:10.522Z,99462.09
2023-02-25T07:35:36.965Z,99467.34
2023-02-25T07:38:03.397Z,99459.56
2023-02-25T07:40:29.819Z,99468.69
2023-02-25T07:42:56.238Z,99469.81
2023-02-25T07:45:22.852Z,99473.38
2023-02-25T07:47:52.968Z,99479.66
2023-02-25T07:50:19.388Z,99475.53
2023-02-25T07:52:45.813Z,99478.81
2023-02-25T07:55:12.228Z,99488.41
2023-02-25T07:57:38.655Z,99485.84
2023-02-25T08:00:10.267Z,99492.84
2023-02-25T08:03:09.172Z,99488.97
2023-02-25T08:05:54.393Z,99494.56
2023-02-25T08:08:32.821Z,99495.56
2023-02-25T08:11:53.261Z,99492.78
2023-02-25T08:14:40.280Z,99497.91
2023-02-25T08:17:06.689Z,99502.88
2023-02-25T08:19:33.208Z,99507.63
2023-02-25T08:22:02.602Z,99509.56
2023-02-25T08:24:29.061Z,99507.69
2023-02-25T08:26:55.474Z,99517.91
2023-02-25T08:29:22.319Z,99510.19
2023-02-25T08:31:54.945Z,99517.06
2023-02-25T08:34:21.508Z,99510.63
2023-02-25T08:36:48.019Z,99517.28
2023-02-25T08:39:41.051Z,99519.13
2023-02-25T08:42:11.783Z,99515.78
2023-02-25T08:44:38.375Z,99520.25
2023-02-25T08:47:05.039Z,99521.22
2023-02-25T08:49:31.898Z,99526.38
2023-02-25T08:51:58.302Z,99524.09
2023-02-25T08:54:24.746Z,99523.09
2023-02-25T08:56:51.416Z,99528.44
2023-02-25T08:59:17.969Z,99535.63
2023-02-25T09:01:45.102Z,99538.50
2023-02-25T09:04:14.440Z,99540.19
2023-02-25T09:06:40.981Z,99544.06
2023-02-25T09:09:07.674Z,99543.28
2023-02-25T09:12:04.521Z,99549.06
2023-02-25T09:14:22.250Z,99550.38
2023-02-25T09:16:48.889Z,99556.00
2023-02-25T09:19:18.275Z,99557.38
2023-02-25T09:21:48.143Z,99569.59
2023-02-25T09:24:15.831Z,99566.69
2023-02-25T09:26:42.651Z,99566.91
2023-02-25T09:29:09.270Z,99577.22
2023-02-25T09:31:37.442Z,99572.13
2023-02-25T09:34:07.381Z,99582.44
2023-02-25T09:36:34.118Z,99587.25
2023-02-25T09:39:00.827Z,99582.69
2023-02-25T09:42:05.465Z,99590.28
2023-02-25T09:44:36.229Z,99596.41
2023-02-25T09:47:33.664Z,99605.19
2023-02-25T09:50:05.004Z,99606.34
2023-02-25T09:52:40.022Z,99607.50
2023-02-25T09:55:21.285Z,99604.19
2023-02-25T09:58:28.183Z,99618.94
2023-02-25T10:01:01.684Z,99618.47
2023-02-25T10:03:59.095Z,99623.00
2023-02-25T10:06:28.478Z,99635.91
2023-02-25T10:08:57.852Z,99631.25
2023-02-25T10:11:51.317Z,99649.19
2023-02-25T10:14:39.296Z,99650.16
2023-02-25T10:17:16.036Z,99654.25
2023-02-25T10:19:48.323Z,99659.47
2023-02-25T10:22:49.071Z,99663.88
2023-02-25T10:25:20.585Z,99668.53
2023-02-25T10:28:10.754Z,99662.16
2023-02-25T10:30:58.169Z,99666.41
2023-02-25T10:33:26.637Z,99674.25
2023-02-25T10:36:21.288Z,99668.44
2023-02-25T10:38:50.600Z,99675.44
2023-02-25T10:41:17.845Z,99677.50
2023-02-25T10:43:45.453Z,99665.50
2023-02-25T10:46:15.286Z,99680.63
2023-02-25T10:48:47.980Z,99676.38
2023-02-25T10:51:15.370Z,99678.81
2023-02-25T10:54:03.350Z,99674.75
2023-02-25T10:56:42.459Z,99684.03
2023-02-25T10:59:23.955Z,99696.09
2023-02-25T11:01:50.672Z,99687.00
2023-02-25T11:04:45.065Z,99701.34
2023-02-25T11:07:34.243Z,99700.66
2023-02-25T11:10:13.251Z,99706.41
2023-02-25T11:12:42.516Z,99696.53
2023-02-25T11:15:18.344Z,99709.94
2023-02-25T11:17:45.859Z,99709.75
2023-02-25T11:20:23.826Z,99742.50
2023-02-25T11:22:53.395Z,99739.00
2023-02-25T11:25:23.778Z,99743.03
2023-02-25T11:27:58.439Z,99740.31
2023-02-25T11:30:32.018Z,99742.38
2023-02-25T11:32:59.145Z,99736.31
2023-02-25T11:35:37.344Z,99751.25
2023-02-25T11:40:52.141Z,99748.41
2023-02-25T11:45:52.946Z,99758.88
2023-02-25T11:48:29.951Z,99757.06
2023-02-25T11:51:24.040Z,99753.28
2023-02-25T11:54:06.241Z,99759.06
2023-02-25T11:56:39.376Z,99764.00
2023-02-25T11:59:30.533Z,99763.00
2023-02-25T12:02:20.667Z,99761.09
2023-02-25T12:05:01.516Z,99758.13
2023-02-25T12:07:55.477Z,99765.53
2023-02-25T12:10:43.958Z,99763.25
2023-02-25T12:13:32.014Z,99768.75
2023-02-25T12:16:40.187Z,99775.97
2023-02-25T12:19:28.161Z,99776.25
2023-02-25T12:22:29.445Z,99783.34
2023-02-25T12:25:17.406Z,99777.69
2023-02-25T12:28:05.064Z,99789.69
2023-02-25T12:30:53.350Z,99796.19
2023-02-25T12:34:01.730Z,99802.97
2023-02-25T12:36:48.700Z,99795.78
2023-02-25T12:39:33.363Z,99791.91
2023-02-25T12:42:11.793Z,99796.28
2023-02-25T12:45:00.075Z,99801.00
2023-02-25T12:47:36.492Z,99807.06
2023-02-25T12:50:05.937Z,99821.13
2023-02-25T12:52:44.470Z,99827.72
2023-02-25T12:55:26.129Z,99849.31
2023-02-25T12:58:03.833Z,99859.91
2023-02-25T13:01:05.457Z,99849.44
2023-02-25T13:03:56.116Z,99846.03
2023-02-25T13:06:42.069Z,99841.59
2023-02-25T13:09:32.030Z,99832.16
2023-02-25T13:12:16.871Z,99841.72
2023-02-25T13:14:43.298Z,99832.03
2023-02-25T13:17:37.799Z,99836.09
2023-02-25T13:20:25.783Z,99852.69
2023-02-25T13:23:31.526Z,99842.31
2023-02-25T13:26:00.721Z,99840.56
2023-02-25T13:29:21.448Z,99838.94
2023-02-25T13:31:56.480Z,99848.25
2023-02-25T13:34:35.113Z,99870.00
2023-02-25T13:37:19.983Z,99874.31
2023-02-25T13:39:58.713Z,99874.22
2023-02-25T13:42:53.249Z,99896.53
2023-02-25T13:45:37.257Z,99895.28
2023-02-25T13:48:33.464Z,99915.16
2023-02-25T13:51:24.596Z,99920.34
2023-02-25T13:54:26.647Z,99916.56
2023-02-25T13:57:05.683Z,99925.56
2023-02-25T13:59:53.615Z,99921.69
2023-02-25T14:02:49.630Z,99929.53
2023-02-25T14:05:34.597Z,99916.47
2023-02-25T14:08:22.645Z,99917.44
2023-02-25T14:11:07.730Z,99930.97
2023-02-25T14:14:22.389Z,99919.34
2023-02-25T14:17:08.558Z,99935.00
2023-02-25T14:20:20.308Z,99938.50
2023-02-25T14:22:57.270Z,99940.53
2023-02-25T14:25:45.630Z,99943.22
2023-02-25T14:28:25.921Z,99934.28
2023-02-25T14:31:14.195Z,99947.06
2023-02-25T14:33:58.899Z,99957.66
2023-02-25T14:36:46.255Z,99952.41
2023-02-25T14:39:33.818Z,99958.25
2023-02-25T14:42:19.242Z,99957.41
2023-02-25T14:45:14.409Z,99960.72
2023-02-25T14:47:47.128Z,99958.91
2023-02-25T14:50:20.756Z,99966.78
2023-02-25T14:53:16.393Z,99967.13
2023-02-25T14:55:54.682Z,99975.50
2023-02-25T14:59:03.859Z,99980.25
2023-02-25T15:01:44.290Z,99981.03
2023-02-25T15:04:33.021Z,99974.56
2023-02-25T15:07:22.682Z,99985.38
2023-02-25T15:09:58.174Z,99993.03
2023-02-25T15:12:43.125Z,99994.44
2023-02-25T15:15:25.046Z,99996.25
2023-02-25T15:18:25.394Z,99996.94
2023-02-25T15:20:52.091Z,100006.34
2023-02-25T15:23:20.448Z,100015.63
2023-02-25T15:25:53.750Z,100011.47
2023-02-25T15:28:29.317Z,100017.34
2023-02-25T15:30:59.017Z,100026.16
2023-02-25T15:33:45.442Z,100033.34
2023-02-25T15:36:15.058Z,100035.31
2023-02-25T15:38:52.208Z,100036.69
2023-02-25T15:41:40.848Z,100044.06
2023-02-25T15:44:13.048Z,100039.06
2023-02-25T15:46:44.019Z,100047.16
2023-02-25T15:49:22.176Z,100048.25
2023-02-25T15:51:57.194Z,100057.97
2023-02-25T15:54:29.642Z,100054.13
2023-02-25T15:57:09.028Z,100071.34
2023-02-25T15:59:52.877Z,100080.81
2023-02-25T16:02:34.680Z,100075.44
2023-02-25T16:05:02.872Z,100080.00
2023-02-25T16:07:36.906Z,100090.16
2023-02-25T16:10:23.610Z,100090.72
2023-02-25T16:12:54.382Z,100094.19
2023-02-25T16:15:39.286Z,100103.00
2023-02-25T16:18:14.139Z,100102.81
2023-02-25T16:20:48.266Z,100104.84
2023-02-25T16:23:16.441Z,100110.56
2023-02-25T16:25:57.980Z,100112.47
2023-02-25T16:29:18.192Z,100116.47
2023-02-25T16:32:02.026Z,100126.03
2023-02-25T16:34:45.122Z,100137.63
2023-02-25T16:37:32.100Z,100139.75
2023-02-25T16:39:58.800Z,100143.72
2023-02-25T16:42:25.858Z,100145.84
2023-02-25T16:45:04.792Z,100142.56
2023-02-25T16:47:38.916Z,100144.97
2023-02-25T16:50:15.935Z,100151.44
2023-02-25T16:52:48.197Z,100159.53
2023-02-25T16:55:29.379Z,100162.00
2023-02-25T16:58:05.399Z,100161.47
2023-02-25T17:00:33.112Z,100180.03
2023-02-25T17:03:02.559Z,100169.53
2023-02-25T17:05:37.869Z,100182.09
2023-02-25T17:08:14.399Z,100211.81
2023-02-25T17:10:48.213Z,100228.94
2023-02-25T17:13:30.048Z,100215.28
2023-02-25T17:15:56.678Z,100211.56
2023-02-25T17:19:03.902Z,100236.09
2023-02-25T17:21:35.079Z,100218.06
2023-02-25T17:24:11.196Z,100219.22
2023-02-25T17:26:43.096Z,100220.50
2023-02-25T17:29:12.089Z,100229.44
2023-02-25T17:31:47.184Z,100223.72
2023-02-25T17:34:17.562Z,100233.78
2023-02-25T17:36:46.353Z,100231.56
2023-02-25T17:39:19.214Z,100232.44
2023-02-25T17:41:47.556Z,100234.97
2023-02-25T17:44:35.002Z,100241.94
2023-02-25T17:47:03.250Z,100245.22
2023-02-25T17:49:32.988Z,100250.91
2023-02-25T17:52:04.481Z,100252.03
2023-02-25T17:54:35.541Z,100265.47
2023-02-25T17:57:23.416Z,100262.94
2023-02-25T17:59:53.379Z,100257.47
2023-02-25T18:02:22.504Z,100260.31
2023-02-25T18:04:53.179Z,100270.56
2023-02-25T18:07:19.531Z,100272.94
2023-02-25T18:09:46.044Z,100282.75
2023-02-25T18:12:27.774Z,100271.91
2023-02-25T18:15:15.945Z,100271.50
2023-02-25T18:17:47.900Z,100277.38
2023-02-25T18:20:32.745Z,100272.59
2023-02-25T18:23:07.683Z,100294.78
2023-02-25T18:25:35.473Z,100284.47
2023-02-25T18:28:03.073Z,100295.34
2023-02-25T18:30:32.029Z,100296.81
2023-02-25T18:32:59.812Z,100289.25
2023-02-25T18:35:29.853Z,100296.72
2023-02-25T18:37:57.770Z,100308.47
2023-02-25T18:40:27.068Z,100311.25
2023-02-25T18:42:53.500Z,100312.09
2023-02-25T18:45:23.034Z,100311.25
2023-02-25T18:47:50.692Z,100313.38
2023-02-25T18:50:18.134Z,100323.28
2023-02-25T18:52:44.757Z,100313.03
2023-02-25T18:55:31.704Z,100323.91
2023-02-25T18:57:58.720Z,100321.56
2023-02-25T19:00:29.837Z,100318.66
2023-02-25T19:03:05.422Z,100320.69
2023-02-25T19:05:31.968Z,100324.91
2023-02-25T19:07:58.504Z,100325.47
2023-02-25T19:10:30.905Z,100330.28
2023-02-25T19:13:05.160Z,100330.25
2023-02-25T19:15:32.245Z,100333.75
2023-02-25T19:17:58.671Z,100336.09
2023-02-25T19:20:25.207Z,100339.31
2023-02-25T19:22:53.719Z,100337.38
2023-02-25T19:25:22.271Z,100341.03
2023-02-25T19:27:49.895Z,100336.41
2023-02-25T19:30:21.030Z,100336.84
2023-02-25T19:32:47.508Z,100345.38
2023-02-25T19:35:13.968Z,100349.38
2023-02-25T19:37:41.299Z,100345.16
2023-02-25T19:40:11.164Z,100343.88
2023-02-25T19:42:39.392Z,100353.03
2023-02-25T19:45:08.459Z,100350.41
2023-02-25T19:47:35.262Z,100349.31
2023-02-25T19:50:04.769Z,100353.56
2023-02-25T19:52:31.496Z,100358.38
2023-02-25T19:54:57.897Z,100363.06
2023-02-25T19:57:24.350Z,100365.06
2023-02-25T19:59:50.868Z,100366.81
2023-02-25T20:02:17.305Z,100365.75
2023-02-25T20:04:43.802Z,100364.38
2023-02-25T20:07:10.671Z,100375.19
2023-02-25T20:09:37.217Z,100382.41
2023-02-25T20:12:04.033Z,100381.50
2023-02-25T20:14:32.932Z,100385.06
2023-02-25T20:17:00.820Z,100399.09
2023-02-25T20:19:30.326Z,100389.28
2023-02-25T20:21:57.270Z,100395.25
2023-02-25T20:24:23.882Z,100400.75
2023-02-25T20:26:50.440Z,100397.47
2023-02-25T20:29:17.215Z,100408.50
2023-02-25T20:31:43.812Z,100417.75
2023-02-25T20:34:17.915Z,100405.81
2023-02-25T20:37:02.645Z,100414.53
2023-02-25T20:39:41.342Z,100410.72
2023-02-25T20:42:19.803Z,100411.19
2023-02-25T20:44:50.278Z,100416.16
2023-02-25T20:47:20.771Z,100424.75
2023-02-25T20:49:47.732Z,100420.91
2023-02-25T20:52:15.191Z,100429.28
2023-02-25T20:54:42.175Z,100426.47
2023-02-25T20:57:12.312Z,100428.09
2023-02-25T20:59:38.823Z,100430.06
2023-02-25T21:02:05.412Z,100438.38
2023-02-25T21:04:32.024Z,100442.34
2023-02-25T21:06:59.052Z,100443.81
2023-02-25T21:09:25.696Z,100441.41
2023-02-25T21:11:52.161Z,100456.75
2023-02-25T21:14:18.591Z,100446.56
2023-02-25T21:16:45.090Z,100457.16
2023-02-25T21:19:11.541Z,100448.19
2023-02-25T21:21:38.041Z,100455.91
2023-02-25T21:24:05.878Z,100454.97
2023-02-25T21:26:32.682Z,100461.56
2023-02-25T21:28:59.777Z,100463.78
2023-02-25T21:31:26.605Z,100466.59
2023-02-25T21:33:53.308Z,100473.41
2023-02-25T21:36:19.752Z,100472.25
2023-02-25T21:38:46.221Z,100476.97
2023-02-25T21:41:14.974Z,100477.59
2023-02-25T21:43:42.688Z,100476.28
2023-02-25T21:46:12.506Z,100485.19
2023-02-25T21:48:40.436Z,100485.66
2023-02-25T21:51:12.623Z,100490.59
2023-02-25T21:53:39.025Z,100492.34
2023-02-25T21:56:15.716Z,100491.75
2023-02-25T21:58:42.364Z,100500.16
2023-02-25T22:01:29.912Z,100499.00
2023-02-25T22:03:57.540Z,100502.00
2023-02-25T22:06:26.076Z,100510.75
2023-02-25T22:08:54.038Z,100505.34
2023-02-25T22:11:23.375Z,100512.69
2023-02-25T22:13:50.660Z,100513.06
2023-02-25T22:16:17.791Z,100519.88
2023-02-25T22:18:44.787Z,100519.00
2023-02-25T22:21:15.562Z,100530.28
2023-02-25T22:23:45.914Z,100530.34
2023-02-25T22:26:15.873Z,100528.75
2023-02-25T22:28:44.136Z,100522.53
2023-02-25T22:31:16.578Z,100533.19
2023-02-25T22:33:43.866Z,100523.88
2023-02-25T22:36:11.653Z,100522.06
2023-02-25T22:38:40.368Z,100530.50
2023-02-25T22:41:12.925Z,100530.09
2023-02-25T22:43:39.513Z,100535.75
2023-02-25T22:46:24.173Z,100541.66
2023-02-25T22:48:51.744Z,100539.72
2023-02-25T22:51:24.191Z,100558.34
2023-02-25T22:53:51.180Z,100550.59
2023-02-25T22:56:18.204Z,100560.75
2023-02-25T22:58:44.845Z,100561.06
2023-02-25T23:01:14.746Z,100574.59
2023-02-25T23:03:44.218Z,100568.19
2023-02-25T23:06:13.262Z,100568.56
2023-02-25T23:08:39.714Z,100583.66
2023-02-25T23:11:08.862Z,100583.81
2023-02-25T23:13:35.599Z,100578.19
2023-02-25T23:16:02.205Z,100589.69
2023-02-25T23:18:28.655Z,100585.66
2023-02-25T23:20:55.400Z,100596.56
2023-02-25T23:23:21.838Z,100593.16
2023-02-25T23:25:54.346Z,100586.38
2023-02-25T23:28:20.777Z,100590.25
2023-02-25T23:30:47.246Z,100599.41
2023-02-25T23:33:13.661Z,100602.69
2023-02-25T23:35:42.045Z,100607.44
2023-02-25T23:38:09.399Z,100602.25
2023-02-25T23:40:35.879Z,100612.63
2023-02-25T23:43:02.324Z,100619.16
2023-02-25T23:45:28.820Z,100618.16
2023-02-25T23:47:55.281Z,100621.41
2023-02-25T23:50:21.729Z,100626.78
2023-02-25T23:52:48.485Z,100634.09
2023-02-25T23:55:15.114Z,100636.88
2023-02-25T23:57:41.947Z,100640.19
